Pagina principală
METAR-TAF:

METAR-TAF

Aeroporturi :

Grafton, Australia

Latitudine: 29-45-36S, longitudine: 153-01-48E, elevație: 34 m

Observații meteo curente

Raportul a fost făcut în urmă cu 39 de minute, la 10:00 UTC
Vânt 5 kt de la Sud-vest
Temperatură 19°C
Umiditate 60%
Presiune 1018 hPa
Vizibilitate de 10 km sau mai mult
Nori fragmentați la o înălțime de 4300 picior
Nori fragmentați la o înălțime de 9600 picior

METAR: YGFN 261000Z AUTO 22005KT 9999 // BKN043 BKN096 19/11 Q1018

Ora: 20:39 (10:39 UTC)


TAF: lipsă

Observații și prognoze meteo pentru peste 4.000 de aeroporturi (rapoarte METAR și TAF).

Stațiile disponibile sunt reprezentate pe hartă prin puncte galbene și roșii.

Țineți indicatorul mouse-ului pe punctul dorit pentru a vedea denumirea stației.

Apoi, faceți clic pentru a vedea observațiile și prognozele meteorologice.

Pentru a schimba harta: Pentru mărire, faceți clic pe butoanele verzi cu cruce neagră; pentru micșorare, pe butonul verde cu o liniuță; pentru hărți învecinate, pe săgețile verzi.


METAR-TAF: